Time;durP1;ratioP1;P1;durP2;ratioP2;P2;SDS_P1;SDS_P2;PMS_P1;PMS_P2;Temp;Humidity;BMP_temperature;BMP_pressure;BME280_temperature;BME280_humidity;BME280_pressure;Samples;Min_cycle;Max_cycle;Signal;HPM_P1;HPM_P2
2021/08/03 00:00:57;;;;;;;;;0.00;0.00;;;;;27.18;40.35;100578.97;5074607;28;45334;-65
2021/08/03 00:03:33;;;;;;;;;0.00;0.00;;;;;27.18;40.62;100588.03;5074562;27;45426;-65
2021/08/03 00:06:12;;;;;;;;;0.00;0.00;;;;;27.18;40.72;100589.88;5074541;28;45518;-65
2021/08/03 00:08:58;;;;;;;;;0.00;0.00;;;;;27.17;40.57;100596.31;5074162;28;46029;-65
2021/08/03 00:11:25;;;;;;;;;0.00;0.00;;;;;27.17;40.83;100589.00;5074550;28;45397;-65
2021/08/03 00:13:51;;;;;;;;;0.00;0.00;;;;;27.16;40.59;100592.69;5074042;28;45358;-65
2021/08/03 00:16:17;;;;;;;;;0.00;0.00;;;;;27.17;40.29;100583.56;5073410;28;45432;-65
2021/08/03 00:18:42;;;;;;;;;0.00;0.00;;;;;27.14;40.29;100578.25;5072103;28;45440;-65
2021/08/03 00:21:09;;;;;;;;;0.00;0.00;;;;;27.16;40.41;100573.59;5074045;28;45752;-65
2021/08/03 00:23:36;;;;;;;;;0.00;0.00;;;;;27.14;40.26;100570.06;5074625;28;45582;-65
2021/08/03 00:26:02;;;;;;;;;0.00;0.00;;;;;27.14;40.46;100579.13;5074491;28;45390;-65
2021/08/03 00:28:28;;;;;;;;;0.00;0.00;;;;;27.15;40.37;100574.56;5074091;28;46571;-65
2021/08/03 00:30:53;;;;;;;;;0.00;0.00;;;;;27.15;40.76;100574.56;5074031;28;45435;-65
2021/08/03 00:33:19;;;;;;;;;0.00;0.00;;;;;27.18;40.32;100581.69;5074295;28;45427;-65
2021/08/03 00:35:49;;;;;;;;;0.00;0.00;;;;;27.16;40.85;100576.31;5072861;28;45558;-65
2021/08/03 00:38:15;;;;;;;;;0.33;0.00;;;;;27.17;40.44;100567.19;5074076;28;45811;-65
2021/08/03 00:40:47;;;;;;;;;0.00;0.00;;;;;27.17;40.93;100561.72;5074038;28;45438;-65
2021/08/03 00:43:12;;;;;;;;;0.00;0.00;;;;;27.15;40.88;100552.72;5057641;28;45465;-65
2021/08/03 00:45:38;;;;;;;;;0.00;0.00;;;;;27.16;40.72;100554.47;5077799;28;45378;-65
2021/08/03 00:48:03;;;;;;;;;0.00;0.00;;;;;27.17;40.38;100556.25;5059175;28;47279;-65
2021/08/03 00:50:29;;;;;;;;;0.00;0.00;;;;;27.16;40.76;100549.03;5077120;28;45500;-65
2021/08/03 00:52:54;;;;;;;;;0.00;0.00;;;;;27.16;40.17;100554.47;5077627;28;45449;-65
2021/08/03 00:55:20;;;;;;;;;0.00;0.00;;;;;27.15;40.72;100558.19;5077778;28;45570;-65
2021/08/03 00:57:47;;;;;;;;;0.00;0.00;;;;;27.15;40.78;100547.28;5077162;28;45706;-65
2021/08/03 01:00:13;;;;;;;;;0.00;0.00;;;;;27.14;40.37;100557.28;5077876;28;45508;-65
2021/08/03 01:02:39;;;;;;;;;0.00;0.00;;;;;27.14;40.84;100545.50;5077251;27;45416;-65
2021/08/03 01:05:06;;;;;;;;;0.00;0.00;;;;;27.14;40.31;100546.38;5077190;28;45453;-65
2021/08/03 01:07:41;;;;;;;;;0.00;0.00;;;;;27.15;40.38;100558.19;5076484;28;45521;-65
2021/08/03 01:10:21;;;;;;;;;0.00;0.00;;;;;27.14;40.84;100550.97;5076736;28;45480;-65
2021/08/03 01:13:08;;;;;;;;;0.00;0.00;;;;;27.15;40.35;100552.72;5076680;28;45387;-65
2021/08/03 01:15:46;;;;;;;;;0.00;0.00;;;;;27.14;40.25;100546.38;5076964;28;45480;-65
2021/08/03 01:18:29;;;;;;;;;0.00;0.00;;;;;27.12;40.45;100536.50;5058478;28;45496;-65
2021/08/03 01:21:19;;;;;;;;;0.00;0.00;;;;;27.14;40.77;100546.38;5076390;28;45333;-65
2021/08/03 01:24:12;;;;;;;;;0.00;0.00;;;;;27.13;40.22;100533.72;5076722;28;45525;-65
2021/08/03 01:26:46;;;;;;;;;0.00;0.00;;;;;27.12;40.31;100536.50;5076894;28;45681;-64
2021/08/03 01:29:16;;;;;;;;;0.00;0.00;;;;;27.12;40.38;100531.06;5075716;28;47818;-64
2021/08/03 01:31:48;;;;;;;;;0.00;0.00;;;;;27.12;40.40;100531.06;5076915;28;45382;-64
2021/08/03 01:34:16;;;;;;;;;0.00;0.00;;;;;27.11;40.34;100530.19;5077051;28;45770;-64
2021/08/03 01:36:46;;;;;;;;;0.00;0.00;;;;;27.11;40.72;100530.19;5075734;28;45425;-65
2021/08/03 01:39:16;;;;;;;;;0.00;0.00;;;;;27.12;40.20;100528.31;5076720;28;45558;-65
2021/08/03 01:41:48;;;;;;;;;0.00;0.00;;;;;27.11;40.92;100518.41;5058370;28;45413;-65
2021/08/03 01:44:14;;;;;;;;;0.00;0.00;;;;;27.10;40.67;100520.22;5075861;28;45600;-67
2021/08/03 01:46:47;;;;;;;;;0.00;0.00;;;;;27.11;40.87;100515.66;5076256;28;45448;-65
2021/08/03 01:49:17;;;;;;;;;0.00;0.00;;;;;27.11;40.64;100515.66;5075732;28;45848;-65
2021/08/03 01:51:45;;;;;;;;;0.00;0.00;;;;;27.11;40.39;100515.66;5075817;28;45496;-64
2021/08/03 01:54:11;;;;;;;;;0.00;0.00;;;;;27.10;40.06;100522.94;5075722;28;45465;-64
2021/08/03 01:56:38;;;;;;;;;0.00;0.00;;;;;27.10;40.67;100519.34;5076006;28;45417;-64
2021/08/03 01:59:05;;;;;;;;;0.00;0.00;;;;;27.08;40.89;100513.09;5075571;28;45574;-64
2021/08/03 02:01:31;;;;;;;;;0.00;0.00;;;;;27.10;40.75;100522.06;5075713;28;45670;-64
2021/08/03 02:04:00;;;;;;;;;0.00;0.00;;;;;27.10;40.32;100516.63;5075837;27;45354;-64
2021/08/03 02:06:26;;;;;;;;;0.00;0.00;;;;;27.10;40.69;100519.34;5075767;28;45315;-64
2021/08/03 02:09:01;;;;;;;;;0.00;0.00;;;;;27.09;40.34;100523.94;5075607;28;46416;-64
2021/08/03 02:11:29;;;;;;;;;0.00;0.00;;;;;27.08;40.24;100518.56;5075737;28;45401;-65
2021/08/03 02:13:56;;;;;;;;;0.00;0.00;;;;;27.08;40.33;100527.63;5075985;28;45567;-65
2021/08/03 02:16:22;;;;;;;;;0.00;0.00;;;;;27.07;40.38;100522.28;5075711;28;45412;-65
2021/08/03 02:18:47;;;;;;;;;0.00;0.00;;;;;27.07;40.48;100522.28;5057357;28;45401;-65
2021/08/03 02:21:20;;;;;;;;;0.00;0.00;;;;;27.08;40.22;100524.03;5075701;28;45429;-65
2021/08/03 02:23:46;;;;;;;;;0.00;0.00;;;;;27.08;40.73;100526.75;5075847;28;45635;-65
2021/08/03 02:26:12;;;;;;;;;0.00;0.00;;;;;27.07;40.39;100525.00;5075585;28;45509;-65
2021/08/03 02:28:38;;;;;;;;;0.00;0.00;;;;;27.05;40.47;100518.75;5071757;28;45548;-65
2021/08/03 02:31:11;;;;;;;;;0.00;0.00;;;;;27.02;40.79;100522.53;5075121;28;45456;-65
2021/08/03 02:33:41;;;;;;;;;0.00;0.00;;;;;27.05;40.36;100532.41;5075814;28;45433;-65
2021/08/03 02:36:11;;;;;;;;;0.00;0.00;;;;;27.04;40.93;100520.59;5074255;28;45098;-65
2021/08/03 02:38:41;;;;;;;;;0.00;0.00;;;;;27.03;40.34;100515.22;5074921;28;46315;-65
2021/08/03 02:41:07;;;;;;;;;0.00;0.00;;;;;27.03;40.71;100527.03;5075646;28;45456;-64
2021/08/03 02:43:36;;;;;;;;;0.00;0.00;;;;;27.03;40.83;100523.41;5040177;28;45767;-64
2021/08/03 02:46:03;;;;;;;;;0.00;0.00;;;;;27.03;41.07;100528.88;5075215;28;45405;-64
2021/08/03 02:48:31;;;;;;;;;0.00;0.00;;;;;27.02;40.56;100524.38;5075035;28;45428;-64
2021/08/03 02:50:57;;;;;;;;;0.00;0.00;;;;;27.01;40.44;100523.50;5075174;28;45596;-65
2021/08/03 02:53:46;;;;;;;;;0.00;0.00;;;;;27.01;40.56;100520.78;5075000;28;45540;-65
2021/08/03 02:56:19;;;;;;;;;0.00;0.00;;;;;27.01;40.96;100519.91;5066186;28;45584;-65
2021/08/03 02:59:05;;;;;;;;;0.00;0.00;;;;;27.02;40.39;100516.19;5074873;28;46101;-65
2021/08/03 03:01:34;;;;;;;;;0.00;0.00;;;;;27.00;40.40;100519.00;5074883;28;45769;-65
2021/08/03 03:04:10;;;;;;;;;0.00;0.00;;;;;27.01;41.00;100500.78;5075036;28;45510;-65
2021/08/03 03:06:40;;;;;;;;;0.00;0.00;;;;;27.00;41.07;100499.91;5055901;28;45394;-65
2021/08/03 03:09:05;;;;;;;;;0.00;0.00;;;;;26.99;41.07;100500.00;5074614;28;45409;-65
2021/08/03 03:11:35;;;;;;;;;0.00;0.00;;;;;26.99;40.65;100497.28;5074571;28;45529;-65
2021/08/03 03:14:03;;;;;;;;;0.00;0.00;;;;;26.99;41.00;100491.81;5074695;28;45571;-65
2021/08/03 03:16:33;;;;;;;;;0.00;0.00;;;;;26.99;40.89;100491.81;5074766;28;45488;-65
2021/08/03 03:19:01;;;;;;;;;0.00;0.00;;;;;26.97;40.98;100482.84;5074583;28;45536;-65
2021/08/03 03:21:27;;;;;;;;;0.00;0.00;;;;;26.97;41.04;100491.03;5074515;28;45679;-65
2021/08/03 03:23:57;;;;;;;;;0.00;0.00;;;;;26.95;41.14;100485.66;5074656;28;45707;-64
2021/08/03 03:26:28;;;;;;;;;0.00;0.00;;;;;26.94;40.78;100492.97;5074688;28;45469;-65
2021/08/03 03:28:56;;;;;;;;;0.00;0.00;;;;;26.93;40.83;100493.06;5074059;28;45483;-65
2021/08/03 03:31:27;;;;;;;;;0.00;0.00;;;;;26.93;40.96;100493.06;5074508;28;45526;-65
2021/08/03 03:33:55;;;;;;;;;0.00;0.00;;;;;26.92;40.50;100480.34;5074687;28;45885;-65
2021/08/03 03:36:27;;;;;;;;;0.00;0.00;;;;;26.91;40.77;100492.25;5052629;28;45436;-65
2021/08/03 03:38:53;;;;;;;;;0.00;0.00;;;;;26.91;41.00;100490.41;5053833;28;45438;-65
2021/08/03 03:41:22;;;;;;;;;0.00;0.00;;;;;26.90;41.34;100494.09;5054198;28;45437;-65
2021/08/03 03:43:47;;;;;;;;;0.00;0.00;;;;;26.90;41.24;100496.81;5054045;28;45449;-65
2021/08/03 03:46:19;;;;;;;;;0.00;0.00;;;;;26.90;40.69;100498.66;5054261;28;45756;-64
2021/08/03 03:48:51;;;;;;;;;0.00;0.00;;;;;26.89;41.24;100494.19;5053805;28;45552;-64
2021/08/03 03:51:21;;;;;;;;;0.00;0.00;;;;;26.88;41.13;100500.59;5054293;28;45480;-64
2021/08/03 03:53:52;;;;;;;;;0.00;0.00;;;;;26.89;41.52;100496.94;5054045;28;45455;-65
2021/08/03 03:56:19;;;;;;;;;0.00;0.00;;;;;26.87;41.46;100499.75;5053978;28;45436;-65
2021/08/03 03:58:51;;;;;;;;;0.00;0.00;;;;;26.87;40.80;100499.75;5054148;28;45479;-65
2021/08/03 04:01:22;;;;;;;;;0.00;0.00;;;;;26.84;41.13;100494.44;5053918;28;45354;-65
2021/08/03 04:03:50;;;;;;;;;0.00;0.00;;;;;26.86;41.36;100502.53;5053841;28;45426;-64
2021/08/03 04:06:17;;;;;;;;;0.00;0.00;;;;;26.84;41.28;100497.16;5054078;28;45330;-65
2021/08/03 04:08:43;;;;;;;;;0.00;0.00;;;;;26.84;41.42;100499.91;5051971;28;46953;-65
2021/08/03 04:11:13;;;;;;;;;0.00;0.00;;;;;26.78;41.59;100491.19;5053650;28;45385;-65
2021/08/03 04:13:47;;;;;;;;;0.00;0.00;;;;;26.82;41.00;100509.16;5053764;28;45435;-65
2021/08/03 04:16:13;;;;;;;;;0.00;0.00;;;;;26.79;41.14;100510.22;5053575;28;45420;-64
2021/08/03 04:18:40;;;;;;;;;0.00;0.00;;;;;26.80;41.39;100514.69;5056647;28;46776;-64
2021/08/03 04:21:05;;;;;;;;;0.00;0.00;;;;;26.78;41.46;100511.16;5057338;28;45452;-64
2021/08/03 04:23:30;;;;;;;;;0.00;0.00;;;;;26.77;41.33;100509.41;5057199;28;45346;-64
2021/08/03 04:25:56;;;;;;;;;0.00;0.00;;;;;26.77;41.54;100501.25;5057632;28;45340;-64
2021/08/03 04:28:21;;;;;;;;;0.00;0.00;;;;;26.77;41.34;100503.97;5052679;28;46102;-64
2021/08/03 04:30:48;;;;;;;;;0.00;0.00;;;;;26.76;41.15;100495.88;5036771;28;45283;-64
2021/08/03 04:33:13;;;;;;;;;0.00;0.00;;;;;26.75;41.19;100492.25;5036992;28;45460;-64
2021/08/03 04:35:39;;;;;;;;;0.00;0.00;;;;;26.70;41.25;100480.72;5042669;28;45359;-64
2021/08/03 04:38:04;;;;;;;;;0.00;0.00;;;;;26.72;41.17;100489.69;5056549;28;46012;-64
2021/08/03 04:40:29;;;;;;;;;0.00;0.00;;;;;26.72;41.48;100489.69;5056812;28;45494;-64
2021/08/03 04:42:56;;;;;;;;;0.00;0.00;;;;;26.71;41.36;100494.28;5057077;28;45734;-64
2021/08/03 04:45:22;;;;;;;;;0.00;0.00;;;;;26.71;41.39;100493.41;5055639;28;45400;-65
2021/08/03 04:47:51;;;;;;;;;0.00;0.00;;;;;26.70;41.14;100494.34;5055096;28;47109;-65
2021/08/03 04:50:25;;;;;;;;;0.00;0.00;;;;;26.70;41.28;100497.09;5056616;28;45427;-65
2021/08/03 04:52:52;;;;;;;;;0.00;0.00;;;;;26.68;41.20;100493.56;5055044;28;45457;-65
2021/08/03 04:55:18;;;;;;;;;0.00;0.00;;;;;26.68;41.29;100493.56;5056874;28;45517;-65
2021/08/03 04:57:44;;;;;;;;;0.00;0.00;;;;;26.67;41.73;100498.16;5056568;28;46239;-64
2021/08/03 05:00:12;;;;;;;;;0.00;0.00;;;;;26.67;41.30;100494.56;5056433;28;45425;-65
2021/08/03 05:02:37;;;;;;;;;0.00;0.00;;;;;26.66;41.29;100500.97;5056367;28;44752;-65
2021/08/03 05:05:05;;;;;;;;;0.00;0.00;;;;;26.64;41.35;100490.16;5057198;28;45524;-65
2021/08/03 05:07:31;;;;;;;;;0.00;0.00;;;;;26.64;41.34;100494.72;5056456;28;45428;-65
2021/08/03 05:10:04;;;;;;;;;0.00;0.00;;;;;26.63;41.13;100491.09;5054819;28;45767;-64
2021/08/03 05:12:30;;;;;;;;;0.00;0.00;;;;;26.63;41.61;100487.50;5056934;28;45407;-64
2021/08/03 05:15:00;;;;;;;;;0.00;0.00;;;;;26.63;41.78;100482.06;5056746;28;45438;-65
2021/08/03 05:17:29;;;;;;;;;0.00;0.00;;;;;26.63;41.28;100490.25;5056139;28;45451;-65
2021/08/03 05:19:55;;;;;;;;;0.00;0.00;;;;;26.62;41.33;100483.00;5056042;28;45376;-65
2021/08/03 05:22:20;;;;;;;;;0.00;0.00;;;;;26.62;41.56;100477.56;5055845;28;45404;-66
2021/08/03 05:24:52;;;;;;;;;0.00;0.00;;;;;26.61;41.52;100493.03;5056511;28;45402;-65
2021/08/03 05:27:18;;;;;;;;;0.00;0.00;;;;;26.61;41.36;100489.44;5055948;28;45392;-65
2021/08/03 05:29:44;;;;;;;;;0.00;0.00;;;;;26.61;41.52;100497.63;5055735;28;45546;-65
2021/08/03 05:32:09;;;;;;;;;0.00;0.00;;;;;26.60;41.27;100495.84;5055829;28;45318;-65
2021/08/03 05:34:35;;;;;;;;;0.00;0.00;;;;;26.60;41.43;100504.03;5056010;28;45706;-65
2021/08/03 05:37:07;;;;;;;;;0.00;0.00;;;;;26.59;41.72;100505.88;5054488;28;45984;-65
2021/08/03 05:39:32;;;;;;;;;0.00;0.00;;;;;26.59;41.41;100511.34;5055671;28;45401;-65
2021/08/03 05:41:59;;;;;;;;;0.00;0.00;;;;;26.59;41.73;100505.03;5055903;28;45416;-65
2021/08/03 05:44:25;;;;;;;;;0.00;0.00;;;;;26.58;41.49;100505.97;5055974;28;45497;-65
2021/08/03 05:46:52;;;;;;;;;0.00;0.00;;;;;26.59;41.58;100513.19;5055781;28;46092;-65
2021/08/03 05:49:17;;;;;;;;;0.00;0.00;;;;;26.58;41.50;100511.44;5055727;28;45558;-65
2021/08/03 05:51:42;;;;;;;;;0.00;0.00;;;;;26.59;41.95;100521.38;5055633;28;45464;-65
2021/08/03 05:54:08;;;;;;;;;0.00;0.00;;;;;26.59;41.84;100521.38;5056069;28;45720;-65
2021/08/03 05:56:33;;;;;;;;;0.00;0.00;;;;;26.60;41.66;100525.84;5055609;28;45805;-65
2021/08/03 05:58:59;;;;;;;;;0.00;0.00;;;;;26.59;41.53;100518.66;5055579;28;45532;-65
2021/08/03 06:01:24;;;;;;;;;0.00;0.00;;;;;26.57;41.77;100515.97;5054174;28;45538;-65
2021/08/03 06:03:50;;;;;;;;;0.00;0.00;;;;;26.58;41.49;100515.03;5055775;28;45440;-65
2021/08/03 06:06:19;;;;;;;;;0.00;0.00;;;;;26.57;41.42;100517.81;5055617;28;45436;-65
2021/08/03 06:08:45;;;;;;;;;0.00;0.00;;;;;26.59;41.45;100521.38;5055781;28;45883;-65
2021/08/03 06:11:23;;;;;;;;;0.00;0.00;;;;;26.59;41.69;100518.66;5055593;28;45415;-65
2021/08/03 06:13:53;;;;;;;;;0.00;0.00;;;;;26.59;41.79;100515.94;5055804;28;45549;-65
2021/08/03 06:16:20;;;;;;;;;0.00;0.00;;;;;26.58;41.79;100519.59;5055116;28;45735;-65
2021/08/03 06:18:46;;;;;;;;;0.00;0.00;;;;;26.58;41.49;100525.94;5055418;28;45464;-65
2021/08/03 06:21:13;;;;;;;;;0.00;0.00;;;;;26.57;42.02;100517.81;5055256;28;45592;-65
2021/08/03 06:23:41;;;;;;;;;0.00;0.00;;;;;26.58;41.28;100522.34;5055474;28;45713;-65
2021/08/03 06:26:07;;;;;;;;;0.00;0.00;;;;;26.55;41.81;100521.50;5054974;28;45494;-65
2021/08/03 06:28:33;;;;;;;;;0.00;0.00;;;;;26.60;41.78;100523.13;5055234;28;45443;-64
2021/08/03 06:30:59;;;;;;;;;0.00;0.00;;;;;26.60;41.72;100528.59;5055163;28;45456;-64
2021/08/03 06:33:24;;;;;;;;;0.00;0.00;;;;;26.59;41.38;100530.44;5055571;28;45401;-64
2021/08/03 06:35:51;;;;;;;;;0.00;0.00;;;;;26.60;41.34;100537.66;5053851;28;45264;-64
2021/08/03 06:38:17;;;;;;;;;0.00;0.00;;;;;26.61;41.33;100544.88;5054956;28;45438;-64
2021/08/03 06:40:48;;;;;;;;;0.00;0.00;;;;;26.62;41.68;100541.19;5054011;28;45492;-65
2021/08/03 06:43:17;;;;;;;;;0.00;0.00;;;;;26.63;41.60;100542.06;5055085;28;45449;-65
2021/08/03 06:45:48;;;;;;;;;0.00;0.00;;;;;26.63;41.53;100542.06;5054443;28;45902;-65
2021/08/03 06:48:20;;;;;;;;;0.00;0.00;;;;;26.62;41.33;100541.19;5054897;28;45772;-65
2021/08/03 06:50:55;;;;;;;;;0.00;0.00;;;;;26.63;41.51;100545.66;5055249;28;45670;-65
2021/08/03 06:53:23;;;;;;;;;0.00;0.00;;;;;26.65;41.61;100540.13;5054883;28;45418;-65
2021/08/03 06:55:50;;;;;;;;;0.00;0.00;;;;;26.65;41.88;100548.31;5054803;28;46079;-65
2021/08/03 06:58:30;;;;;;;;;0.00;0.00;;;;;26.63;41.72;100551.13;5054090;28;45474;-65
2021/08/03 07:00:58;;;;;;;;;0.00;0.00;;;;;26.52;41.67;100548.97;5054658;28;45459;-67
2021/08/03 07:03:26;;;;;;;;;0.00;0.00;;;;;26.20;41.86;100548.00;5054990;28;45345;-67
2021/08/03 07:05:56;;;;;;;;;0.00;0.00;;;;;26.04;42.40;100557.97;5054383;28;45465;-67
2021/08/03 07:08:21;;;;;;;;;0.00;0.00;;;;;25.89;42.93;100554.16;5054460;28;45436;-67
2021/08/03 07:10:58;;;;;;;;;0.00;0.00;;;;;25.77;43.31;100555.69;5054656;28;45536;-65
2021/08/03 07:13:24;;;;;;;;;0.00;0.00;;;;;25.67;43.46;100570.75;5054267;28;45496;-66
2021/08/03 07:15:51;;;;;;;;;2.00;1.00;;;;;25.53;43.71;100571.44;5054129;28;45506;-66
2021/08/03 07:18:20;;;;;;;;;2.00;2.00;;;;;25.39;43.88;100571.28;5054165;28;45356;-67
2021/08/03 07:20:47;;;;;;;;;2.00;2.00;;;;;25.21;44.33;100563.09;5054016;28;45556;-67
2021/08/03 07:23:17;;;;;;;;;3.33;3.00;;;;;25.08;44.78;100572.78;5054523;28;45397;-67
2021/08/03 07:25:44;;;;;;;;;2.00;2.00;;;;;24.97;45.18;100564.28;5052826;28;45797;-66
2021/08/03 07:28:09;;;;;;;;;1.33;1.33;;;;;24.95;45.09;100572.50;5054301;28;45452;-66
2021/08/03 07:30:42;;;;;;;;;3.00;2.00;;;;;24.94;45.25;100576.16;5054218;28;45448;-66
2021/08/03 07:33:13;;;;;;;;;2.67;2.67;;;;;24.92;45.37;100573.50;5054565;28;45784;-66
2021/08/03 07:35:47;;;;;;;;;3.00;2.00;;;;;24.89;45.67;100584.56;5052833;28;45823;-66
2021/08/03 07:38:20;;;;;;;;;3.00;2.67;;;;;24.85;45.53;100576.63;5053927;28;44894;-66
2021/08/03 07:40:45;;;;;;;;;2.00;2.00;;;;;24.80;45.26;100570.50;5053860;28;45496;-66
2021/08/03 07:43:11;;;;;;;;;3.00;2.00;;;;;24.72;45.95;100582.66;5052794;28;45781;-66
2021/08/03 07:45:37;;;;;;;;;2.67;2.67;;;;;24.65;45.78;100583.00;5049530;28;45447;-66
2021/08/03 07:48:04;;;;;;;;;2.33;2.33;;;;;24.58;46.25;100567.91;5053557;28;45761;-66
2021/08/03 07:50:30;;;;;;;;;1.00;1.00;;;;;24.58;45.77;100573.34;5053888;28;45708;-65
2021/08/03 07:52:55;;;;;;;;;2.33;2.33;;;;;24.58;45.76;100567.91;5053631;28;45424;-65
2021/08/03 07:55:21;;;;;;;;;2.33;2.33;;;;;24.58;45.84;100578.78;5053312;28;46146;-67
2021/08/03 07:57:47;;;;;;;;;2.33;2.33;;;;;24.55;45.43;100577.97;5053213;28;45510;-66
2021/08/03 08:00:14;;;;;;;;;2.67;2.67;;;;;24.52;45.96;100569.09;5053643;28;45500;-66
2021/08/03 08:02:40;;;;;;;;;3.67;2.00;;;;;24.45;46.01;100573.03;5050178;28;45481;-67
2021/08/03 08:05:05;;;;;;;;;3.33;3.33;;;;;24.43;46.17;100564.94;5049334;28;45721;-66
2021/08/03 08:07:31;;;;;;;;;1.33;1.33;;;;;24.50;45.92;100571.91;5053063;28;45747;-66
2021/08/03 08:09:58;;;;;;;;;2.67;1.00;;;;;24.48;46.03;100565.63;5053384;28;45509;-66
2021/08/03 08:12:23;;;;;;;;;3.67;3.67;;;;;24.46;46.06;100566.63;5053183;28;45401;-66
2021/08/03 08:14:48;;;;;;;;;5.00;4.00;;;;;24.45;45.76;100573.91;5053097;28;45457;-66
2021/08/03 08:17:15;;;;;;;;;2.00;2.00;;;;;24.44;45.92;100569.44;5053155;28;45449;-66
2021/08/03 08:19:47;;;;;;;;;3.00;2.33;;;;;24.41;45.85;100555.97;5053562;28;45523;-66
2021/08/03 08:22:13;;;;;;;;;1.33;1.00;;;;;24.44;46.15;100555.84;5050795;28;45445;-66
2021/08/03 08:24:39;;;;;;;;;4.50;4.00;;;;;24.52;45.98;100555.47;5043863;28;45532;-66
2021/08/03 08:27:04;;;;;;;;;0.00;0.00;;;;;24.59;45.95;100559.69;5033459;28;45438;-66
2021/08/03 08:29:29;;;;;;;;;3.67;1.33;;;;;24.65;45.72;100570.28;5046400;28;45894;-67
2021/08/03 08:31:55;;;;;;;;;2.00;2.00;;;;;24.65;45.52;100559.41;5053219;28;45684;-67
2021/08/03 08:34:21;;;;;;;;;2.33;2.33;;;;;24.63;45.50;100555.88;5053125;28;45416;-67
2021/08/03 08:36:47;;;;;;;;;1.67;1.67;;;;;24.60;45.16;100557.84;5065519;28;45386;-67
2021/08/03 08:39:12;;;;;;;;;2.33;2.33;;;;;24.60;45.58;100566.00;5073544;27;45784;-66
2021/08/03 08:41:38;;;;;;;;;1.33;1.33;;;;;24.62;45.32;100564.09;5073325;28;45717;-67
2021/08/03 08:44:04;;;;;;;;;1.00;1.00;;;;;24.67;45.25;100556.63;5073014;28;45709;-67
2021/08/03 08:46:35;;;;;;;;;2.00;2.00;;;;;24.70;44.91;100556.47;5068592;28;45430;-67
2021/08/03 08:49:03;;;;;;;;;2.67;2.00;;;;;24.68;44.94;100564.72;5070859;28;45524;-67
2021/08/03 08:51:29;;;;;;;;;1.33;1.33;;;;;24.67;44.75;100559.34;5072730;28;45546;-66
2021/08/03 08:53:55;;;;;;;;;1.33;1.00;;;;;24.65;45.14;100553.97;5071162;28;45562;-66
2021/08/03 08:56:21;;;;;;;;;0.00;0.00;;;;;24.72;45.42;100570.88;5072933;27;45647;-66
2021/08/03 08:58:47;;;;;;;;;1.00;1.00;;;;;24.80;44.81;100568.66;5053206;28;45547;-66
2021/08/03 09:01:12;;;;;;;;;1.00;1.00;;;;;24.88;44.63;100566.44;5066173;28;45535;-67
2021/08/03 09:03:38;;;;;;;;;1.67;1.67;;;;;24.91;44.44;100566.31;5071536;27;46098;-67
2021/08/03 09:06:05;;;;;;;;;1.00;1.00;;;;;24.94;44.40;100566.19;5075449;28;45385;-67
2021/08/03 09:08:38;;;;;;;;;0.00;0.00;;;;;25.02;44.49;100559.47;5076047;28;45391;-67
2021/08/03 09:11:11;;;;;;;;;2.00;2.00;;;;;25.10;44.64;100560.84;5053395;28;45466;-67
2021/08/03 09:14:00;;;;;;;;;1.67;1.67;;;;;25.21;44.56;100557.66;5086095;27;47406;-66
2021/08/03 09:16:27;;;;;;;;;2.00;2.00;;;;;25.28;44.22;100560.94;5086962;27;45488;-67
2021/08/03 09:18:54;;;;;;;;;1.00;1.00;;;;;25.34;44.21;100560.63;5073443;28;45561;-66
2021/08/03 09:21:28;;;;;;;;;0.33;0.33;;;;;25.35;44.12;100566.00;5076185;28;45757;-67
2021/08/03 09:24:01;;;;;;;;;1.67;1.67;;;;;25.30;43.94;100581.66;5076066;28;45786;-67
2021/08/03 09:26:43;;;;;;;;;2.33;2.33;;;;;25.24;43.93;100578.38;5075861;28;45440;-67
2021/08/03 09:29:10;;;;;;;;;2.00;2.00;;;;;25.15;44.04;100574.25;5076338;28;45767;-67
2021/08/03 09:31:37;;;;;;;;;2.00;2.00;;;;;25.05;44.30;100581.09;5077518;27;45400;-66
2021/08/03 09:34:14;;;;;;;;;2.00;2.00;;;;;25.00;44.36;100581.31;5078252;27;47287;-67
2021/08/03 09:36:49;;;;;;;;;3.00;3.00;;;;;24.97;44.36;100583.31;5095325;27;45515;-67
2021/08/03 09:39:47;;;;;;;;;3.00;3.00;;;;;24.92;44.31;100578.94;5092118;27;45515;-67
2021/08/03 09:42:27;;;;;;;;;3.67;3.67;;;;;24.86;44.32;100579.25;5070118;28;45908;-67
2021/08/03 09:45:00;;;;;;;;;2.00;2.00;;;;;24.80;44.04;100573.22;5038493;28;45532;-67
2021/08/03 09:47:27;;;;;;;;;2.00;2.00;;;;;24.75;44.55;100574.31;5067024;27;45481;-67
2021/08/03 09:49:55;;;;;;;;;1.00;1.00;;;;;24.79;44.92;100572.34;5076329;28;45541;-67
2021/08/03 09:52:24;;;;;;;;;2.00;2.00;;;;;24.85;44.85;100574.78;5076263;28;45758;-67
2021/08/03 09:54:49;;;;;;;;;1.00;1.00;;;;;24.88;44.53;100561.00;5075576;28;45428;-67
2021/08/03 09:57:26;;;;;;;;;3.00;2.67;;;;;24.94;44.47;100566.19;5073374;28;45460;-67
2021/08/03 09:59:53;;;;;;;;;2.00;2.00;;;;;24.98;44.55;100576.91;5055807;28;45462;-67
2021/08/03 10:02:22;;;;;;;;;3.00;3.00;;;;;24.95;44.16;100572.50;5057280;28;45487;-67
2021/08/03 10:04:49;;;;;;;;;1.00;1.00;;;;;24.98;44.47;100568.75;5074612;27;45510;-67
2021/08/03 10:07:14;;;;;;;;;3.00;2.67;;;;;24.98;44.37;100560.56;5075232;28;45554;-67
2021/08/03 10:09:42;;;;;;;;;3.33;3.33;;;;;25.02;44.33;100567.63;5075781;28;45504;-67
2021/08/03 10:12:08;;;;;;;;;4.33;3.33;;;;;25.00;44.12;100569.53;5075821;28;45571;-67
2021/08/03 10:14:34;;;;;;;;;1.33;1.33;;;;;24.95;44.04;100570.66;5074410;28;46295;-67
2021/08/03 10:16:59;;;;;;;;;0.33;0.33;;;;;24.95;43.92;100564.34;5075213;28;45458;-67
2021/08/03 10:19:27;;;;;;;;;1.67;1.67;;;;;24.96;43.86;100557.91;5075930;28;45464;-68
2021/08/03 10:22:19;;;;;;;;;2.33;2.33;;;;;25.02;43.65;100568.50;5076392;27;45475;-67
2021/08/03 10:24:56;;;;;;;;;2.67;2.67;;;;;25.04;43.61;100571.16;5075471;28;45531;-67
2021/08/03 10:27:22;;;;;;;;;2.33;2.33;;;;;25.09;43.99;100566.38;5074413;28;45492;-67
2021/08/03 10:29:59;;;;;;;;;0.67;0.67;;;;;25.19;43.80;100567.69;5057442;28;45462;-67
2021/08/03 10:32:42;;;;;;;;;1.00;1.00;;;;;25.27;43.89;100560.06;5075793;28;45602;-66
2021/08/03 10:35:15;;;;;;;;;1.00;1.00;;;;;25.38;43.47;100564.09;5075424;28;46420;-66
2021/08/03 10:37:59;;;;;;;;;2.00;2.00;;;;;25.46;43.59;100554.56;5077456;27;45697;-66
2021/08/03 10:40:43;;;;;;;;;2.67;2.67;;;;;25.52;43.12;100556.09;5095690;27;45442;-67
2021/08/03 10:43:22;;;;;;;;;2.33;1.33;;;;;25.52;43.71;100550.66;5053740;28;45857;-67
2021/08/03 10:46:08;;;;;;;;;2.00;2.00;;;;;25.54;43.35;100554.16;5055005;28;45156;-66
2021/08/03 10:48:39;;;;;;;;;1.00;1.00;;;;;25.61;43.53;100561.06;5053037;28;45762;-67
2021/08/03 10:51:17;;;;;;;;;0.00;0.00;;;;;25.71;43.42;100561.47;5056860;28;45811;-66
2021/08/03 10:53:57;;;;;;;;;0.00;0.00;;;;;25.80;43.69;100549.22;5056305;28;45481;-66
2021/08/03 10:56:22;;;;;;;;;0.00;0.00;;;;;25.96;43.72;100554.78;5073391;27;45816;-67
2021/08/03 10:58:48;;;;;;;;;0.00;0.00;;;;;26.07;43.48;100553.22;5075091;28;45373;-66
2021/08/03 11:01:43;;;;;;;;;0.67;0.33;;;;;26.21;43.33;100559.78;5074212;28;45557;-66
2021/08/03 11:04:09;;;;;;;;;0.00;0.00;;;;;26.31;43.20;100551.00;5058469;28;45733;-65
2021/08/03 11:06:36;;;;;;;;;1.33;1.00;;;;;26.40;43.29;100554.19;5074689;28;45678;-65
2021/08/03 11:09:22;;;;;;;;;0.67;0.67;;;;;26.48;42.73;100550.09;5056459;28;45488;-65
2021/08/03 11:11:47;;;;;;;;;2.00;0.00;;;;;26.55;43.06;100551.50;5078240;27;45463;-65
2021/08/03 11:14:27;;;;;;;;;0.00;0.00;;;;;26.64;42.75;100562.91;5073428;27;45532;-65
2021/08/03 11:16:52;;;;;;;;;0.00;0.00;;;;;26.69;42.37;100560.81;5073919;28;45742;-65
2021/08/03 11:19:36;;;;;;;;;0.00;0.00;;;;;26.77;43.18;100554.94;5074297;28;45476;-64
2021/08/03 11:22:02;;;;;;;;;0.00;0.00;;;;;26.83;42.67;100560.91;5055863;28;45477;-64
2021/08/03 11:24:37;;;;;;;;;0.33;0.33;;;;;26.87;42.95;100559.78;5073872;28;45464;-64
2021/08/03 11:27:03;;;;;;;;;0.00;0.00;;;;;26.92;42.70;100563.13;5055627;28;46194;-64
2021/08/03 11:29:38;;;;;;;;;0.00;0.00;;;;;26.97;42.64;100559.25;5075087;27;45534;-64
2021/08/03 11:32:06;;;;;;;;;0.00;0.00;;;;;27.01;42.40;100555.38;5074650;28;45476;-64
2021/08/03 11:34:35;;;;;;;;;0.00;0.00;;;;;27.03;42.91;100559.78;5071983;28;45377;-64